createdAt,value
2019-01-28T00:01:40.921Z,4.20
2019-01-28T00:04:10.042Z,4.10
2019-01-28T00:06:38.906Z,4.70
2019-01-28T00:09:07.974Z,4.60
2019-01-28T00:11:37.101Z,5.07
2019-01-28T00:14:06.779Z,4.47
2019-01-28T00:16:35.796Z,4.30
2019-01-28T00:19:04.754Z,4.17
2019-01-28T00:21:33.683Z,5.33
2019-01-28T00:24:02.619Z,4.57
2019-01-28T00:26:31.446Z,6.23
2019-01-28T00:29:00.398Z,4.60
2019-01-28T00:31:29.247Z,4.33
2019-01-28T00:33:58.141Z,6.13
2019-01-28T00:36:27.029Z,4.73
2019-01-28T00:38:55.908Z,4.40
2019-01-28T00:41:24.921Z,4.70
2019-01-28T00:43:54.362Z,5.10
2019-01-28T00:46:23.426Z,4.50
2019-01-28T00:48:52.237Z,5.40
2019-01-28T00:51:21.247Z,4.60
2019-01-28T00:53:50.152Z,7.43
2019-01-28T00:56:19.164Z,4.40
2019-01-28T00:58:48.048Z,4.80
2019-01-28T01:01:17.203Z,5.40
2019-01-28T01:03:46.124Z,7.50
2019-01-28T01:06:15.141Z,5.30
2019-01-28T01:08:44.133Z,5.40
2019-01-28T01:11:13.082Z,5.80
2019-01-28T01:13:42.021Z,5.80
2019-01-28T01:16:10.945Z,5.40
2019-01-28T01:18:39.811Z,5.03
2019-01-28T01:21:08.707Z,6.20
2019-01-28T01:23:37.627Z,6.90
2019-01-28T01:26:06.673Z,5.20
2019-01-28T01:28:35.618Z,5.00
2019-01-28T01:31:04.586Z,6.87
2019-01-28T01:33:33.432Z,6.80
2019-01-28T01:36:02.325Z,6.30
2019-01-28T01:38:31.133Z,6.30
2019-01-28T01:41:00.193Z,6.33
2019-01-28T01:43:29.159Z,6.43
2019-01-28T01:45:57.965Z,6.60
2019-01-28T01:48:26.873Z,8.37
2019-01-28T01:50:55.837Z,7.93
2019-01-28T01:53:24.661Z,9.67
2019-01-28T01:55:53.523Z,9.60
2019-01-28T01:58:22.483Z,10.90
2019-01-28T02:00:51.513Z,9.87
2019-01-28T02:03:21.309Z,12.80
2019-01-28T02:05:50.276Z,11.53
2019-01-28T02:08:19.287Z,13.93
2019-01-28T02:10:48.245Z,10.50
2019-01-28T02:13:17.167Z,11.37
2019-01-28T02:15:46.063Z,12.17
2019-01-28T02:18:15.169Z,14.40
2019-01-28T02:20:44.064Z,15.73
2019-01-28T02:23:12.997Z,12.93
2019-01-28T02:25:41.853Z,12.40
2019-01-28T02:28:10.737Z,14.93
2019-01-28T02:30:39.740Z,13.90
2019-01-28T02:33:08.701Z,14.73
2019-01-28T02:35:37.628Z,15.47
2019-01-28T02:38:06.497Z,13.27
2019-01-28T02:40:35.463Z,14.30
2019-01-28T02:43:04.445Z,15.13
2019-01-28T02:45:33.415Z,16.00
2019-01-28T02:48:02.343Z,15.27
2019-01-28T02:50:31.161Z,14.03
2019-01-28T02:53:00.209Z,11.50
2019-01-28T02:55:29.043Z,10.73
2019-01-28T02:57:57.923Z,13.57
2019-01-28T03:00:26.853Z,16.63
2019-01-28T03:02:55.807Z,14.50
2019-01-28T03:05:26.893Z,13.93
2019-01-28T03:07:55.810Z,19.10
2019-01-28T03:10:24.801Z,13.40
2019-01-28T03:12:53.757Z,8.63
2019-01-28T03:15:23.050Z,14.10
2019-01-28T03:17:51.988Z,11.30
2019-01-28T03:20:21.236Z,15.33
2019-01-28T03:22:50.402Z,14.33
2019-01-28T03:25:19.503Z,12.50
2019-01-28T03:27:48.530Z,16.90
2019-01-28T03:30:19.901Z,15.33
2019-01-28T03:32:49.276Z,15.17
2019-01-28T03:35:18.549Z,12.33
2019-01-28T03:37:47.596Z,18.43
2019-01-28T03:40:18.052Z,14.10
2019-01-28T03:42:47.196Z,13.73
2019-01-28T03:45:17.846Z,10.00
2019-01-28T03:47:46.880Z,13.07
2019-01-28T03:50:16.545Z,8.47
2019-01-28T03:52:45.625Z,8.07
2019-01-28T03:55:14.686Z,8.53
2019-01-28T03:57:44.186Z,8.20
2019-01-28T04:00:21.254Z,6.97
2019-01-28T04:02:50.345Z,13.40
2019-01-28T04:05:19.384Z,11.07
2019-01-28T04:07:48.418Z,8.90
2019-01-28T04:10:22.752Z,6.70
2019-01-28T04:12:52.020Z,6.57
2019-01-28T04:15:23.168Z,8.33
2019-01-28T04:17:52.154Z,7.73
2019-01-28T04:20:22.177Z,4.30
2019-01-28T04:22:51.123Z,6.23
2019-01-28T04:25:20.273Z,9.77
2019-01-28T04:27:49.217Z,7.73
2019-01-28T04:30:20.212Z,3.70
2019-01-28T04:32:49.319Z,4.37
2019-01-28T04:35:18.393Z,12.43
2019-01-28T04:37:47.335Z,4.60
2019-01-28T04:40:16.416Z,7.57
2019-01-28T04:42:45.472Z,9.80
2019-01-28T04:45:15.756Z,7.87
2019-01-28T04:47:44.799Z,4.77
2019-01-28T04:50:15.940Z,7.20
2019-01-28T04:52:44.974Z,9.27
2019-01-28T04:55:14.373Z,6.57
2019-01-28T04:57:43.393Z,8.43
2019-01-28T05:00:20.340Z,16.20
2019-01-28T05:02:49.298Z,8.40
2019-01-28T05:05:18.297Z,8.40
2019-01-28T05:07:47.184Z,13.10
2019-01-28T05:10:16.815Z,12.57
2019-01-28T05:12:45.887Z,8.27
2019-01-28T05:15:16.220Z,6.63
2019-01-28T05:17:45.319Z,7.10
2019-01-28T05:20:15.904Z,8.80
2019-01-28T05:22:44.875Z,7.83
2019-01-28T05:25:14.606Z,7.87
2019-01-28T05:27:43.619Z,6.63
2019-01-28T05:30:15.750Z,11.90
2019-01-28T05:32:44.722Z,15.27
2019-01-28T05:35:14.967Z,7.67
2019-01-28T05:37:43.907Z,9.43
2019-01-28T05:40:15.489Z,12.40
2019-01-28T05:42:44.525Z,9.77
2019-01-28T05:45:14.355Z,12.00
2019-01-28T05:47:43.429Z,12.67
2019-01-28T05:50:12.729Z,17.60
2019-01-28T05:52:41.723Z,10.23
2019-01-28T05:55:11.672Z,12.40
2019-01-28T05:57:40.735Z,17.87
2019-01-28T06:00:14.080Z,12.47
2019-01-28T06:02:43.115Z,10.10
2019-01-28T06:05:12.241Z,11.40
2019-01-28T06:07:41.391Z,9.07
2019-01-28T06:10:11.006Z,13.87
2019-01-28T06:12:40.117Z,11.87
2019-01-28T06:15:11.334Z,12.77
2019-01-28T06:17:40.309Z,20.83
2019-01-28T06:20:15.571Z,11.33
2019-01-28T06:22:44.535Z,13.20
2019-01-28T06:25:13.509Z,9.37
2019-01-28T06:27:42.500Z,15.83
2019-01-28T06:30:15.034Z,13.40
2019-01-28T06:32:43.928Z,16.50
2019-01-28T06:35:13.327Z,14.70
2019-01-28T06:37:42.189Z,8.97
2019-01-28T06:40:12.970Z,17.67
2019-01-28T06:42:41.893Z,17.37
2019-01-28T06:45:11.623Z,11.10
2019-01-28T06:47:46.678Z,15.20
2019-01-28T06:50:12.250Z,10.93
2019-01-28T06:52:41.128Z,14.17
2019-01-28T06:55:10.189Z,15.40
2019-01-28T06:57:39.157Z,12.90
2019-01-28T07:00:23.180Z,17.70
2019-01-28T07:02:52.227Z,16.67
2019-01-28T07:05:21.300Z,21.27
2019-01-28T07:07:50.222Z,14.80
2019-01-28T07:10:19.241Z,16.27
2019-01-28T07:12:48.380Z,16.20
2019-01-28T07:15:18.214Z,15.00
2019-01-28T07:17:54.382Z,20.90
2019-01-28T07:20:20.501Z,17.75
2019-01-28T07:22:49.800Z,19.27
2019-01-28T07:25:18.861Z,18.10
2019-01-28T07:27:47.861Z,24.50
2019-01-28T07:30:22.525Z,22.90
2019-01-28T07:32:51.371Z,20.40
2019-01-28T07:35:21.295Z,17.87
2019-01-28T07:37:50.253Z,24.60
2019-01-28T07:40:19.197Z,17.70
2019-01-28T07:42:48.291Z,17.48
2019-01-28T07:45:20.013Z,17.60
2019-01-28T07:47:48.876Z,21.00
2019-01-28T07:50:17.810Z,18.23
2019-01-28T07:52:46.965Z,15.53
2019-01-28T07:55:16.212Z,15.67
2019-01-28T07:57:45.086Z,16.53
2019-01-28T08:00:19.338Z,16.05
2019-01-28T08:02:48.243Z,17.00
2019-01-28T08:05:17.810Z,21.20
2019-01-28T08:07:47.198Z,16.43
2019-01-28T08:10:16.842Z,20.03
2019-01-28T08:12:45.994Z,17.17
2019-01-28T08:15:17.256Z,16.50
2019-01-28T08:17:46.350Z,15.00
2019-01-28T08:20:16.618Z,18.00
2019-01-28T08:22:45.797Z,20.10
2019-01-28T08:25:15.988Z,16.70
2019-01-28T08:27:45.078Z,15.50
2019-01-28T08:30:39.449Z,19.17
2019-01-28T08:33:08.438Z,14.90
2019-01-28T08:35:38.006Z,20.83
2019-01-28T08:38:07.128Z,16.80
2019-01-28T08:40:36.166Z,20.70
2019-01-28T08:43:05.244Z,18.50
2019-01-28T08:45:34.223Z,18.10
2019-01-28T08:48:03.109Z,16.47
2019-01-28T08:50:32.210Z,17.33
2019-01-28T08:53:01.083Z,15.13
2019-01-28T08:55:30.058Z,15.13
2019-01-28T08:57:58.985Z,18.67
2019-01-28T09:00:36.119Z,15.70
2019-01-28T09:03:05.308Z,13.50
2019-01-28T09:05:34.341Z,16.53
2019-01-28T09:08:03.384Z,14.50
2019-01-28T09:10:32.990Z,14.27
2019-01-28T09:13:01.945Z,12.50
2019-01-28T09:15:31.092Z,11.60
2019-01-28T09:18:00.268Z,13.73
2019-01-28T09:20:29.742Z,14.07
2019-01-28T09:22:59.358Z,11.73
2019-01-28T09:25:28.371Z,13.47
2019-01-28T09:27:57.410Z,11.33
2019-01-28T09:30:28.216Z,7.77
2019-01-28T09:32:57.304Z,8.97
2019-01-28T09:35:26.211Z,8.50
2019-01-28T09:37:55.389Z,8.03
2019-01-28T09:40:25.581Z,8.90
2019-01-28T09:42:54.685Z,8.73
2019-01-28T09:45:25.848Z,8.27
2019-01-28T09:47:54.967Z,6.40
2019-01-28T09:50:24.178Z,6.23
2019-01-28T09:52:53.975Z,8.10
2019-01-28T09:55:22.952Z,5.30
2019-01-28T09:57:51.981Z,7.60
2019-01-28T10:00:24.389Z,6.27
2019-01-28T10:02:53.279Z,6.50
2019-01-28T10:05:23.697Z,7.67
2019-01-28T10:07:52.594Z,7.23
2019-01-28T10:10:21.691Z,7.00
2019-01-28T10:12:50.795Z,6.43
2019-01-28T10:15:20.551Z,10.60
2019-01-28T10:17:49.457Z,5.30
2019-01-28T10:20:21.199Z,6.27
2019-01-28T10:22:50.223Z,7.20
2019-01-28T10:25:19.342Z,5.57
2019-01-28T10:27:48.713Z,6.47
2019-01-28T10:30:20.493Z,7.70
2019-01-28T10:32:49.502Z,5.33
2019-01-28T10:35:18.598Z,6.10
2019-01-28T10:37:47.555Z,5.13
2019-01-28T10:40:19.818Z,6.00
2019-01-28T10:42:48.855Z,8.83
2019-01-28T10:45:17.934Z,5.40
2019-01-28T10:47:46.915Z,6.57
2019-01-28T10:50:17.398Z,8.50
2019-01-28T10:52:46.392Z,8.00
2019-01-28T10:55:16.195Z,7.23
2019-01-28T10:57:45.291Z,5.90
2019-01-28T11:00:23.420Z,5.80
2019-01-28T11:02:52.525Z,4.83
2019-01-28T11:05:21.672Z,4.20
2019-01-28T11:07:50.754Z,2.97
2019-01-28T11:10:20.474Z,3.53
2019-01-28T11:12:49.424Z,4.00
2019-01-28T11:15:20.845Z,6.43
2019-01-28T11:17:50.044Z,3.67
2019-01-28T11:20:19.121Z,4.47
2019-01-28T11:22:48.505Z,3.07
2019-01-28T11:25:20.189Z,6.53
2019-01-28T11:27:49.428Z,3.63
2019-01-28T11:30:35.822Z,3.80
2019-01-28T11:33:05.105Z,10.43
2019-01-28T11:35:35.751Z,4.27
2019-01-28T11:38:05.766Z,4.93
2019-01-28T11:40:34.968Z,2.83
2019-01-28T11:43:04.313Z,4.10
2019-01-28T11:45:35.847Z,4.03
2019-01-28T11:48:05.817Z,2.27
2019-01-28T11:50:34.968Z,2.57
2019-01-28T11:53:04.914Z,4.00
2019-01-28T11:55:33.936Z,3.23
2019-01-28T11:58:03.001Z,2.63
2019-01-28T12:00:56.562Z,4.07
2019-01-28T12:03:25.551Z,2.90
2019-01-28T12:05:54.627Z,4.63
2019-01-28T12:08:23.745Z,4.07
2019-01-28T12:10:52.758Z,3.80
2019-01-28T12:13:21.735Z,3.80
2019-01-28T12:15:50.633Z,1.83
2019-01-28T12:18:19.514Z,1.93
2019-01-28T12:20:53.768Z,2.13
2019-01-28T12:23:19.828Z,2.00
2019-01-28T12:25:48.786Z,2.30
2019-01-28T12:28:17.790Z,1.77
2019-01-28T12:30:46.747Z,1.57
2019-01-28T12:33:15.798Z,3.20
2019-01-28T12:35:44.834Z,2.00
2019-01-28T12:38:13.802Z,2.20
2019-01-28T12:40:42.760Z,4.23
2019-01-28T12:43:11.680Z,2.07
2019-01-28T12:45:40.598Z,1.87
2019-01-28T12:48:09.532Z,1.80
2019-01-28T12:50:38.382Z,3.03
2019-01-28T12:53:07.277Z,2.90
2019-01-28T12:55:36.332Z,4.60
2019-01-28T12:58:06.935Z,2.00
2019-01-28T13:00:39.904Z,4.47
2019-01-28T13:03:10.008Z,2.80
2019-01-28T13:05:39.698Z,7.07
2019-01-28T13:08:08.636Z,1.93
2019-01-28T13:10:37.669Z,4.53
2019-01-28T13:13:06.782Z,2.17
2019-01-28T13:15:35.824Z,1.73
2019-01-28T13:18:05.020Z,2.70
2019-01-28T13:20:34.020Z,3.30
2019-01-28T13:23:02.914Z,2.63
2019-01-28T13:25:32.074Z,1.40
2019-01-28T13:28:00.974Z,4.40
2019-01-28T13:30:33.758Z,2.40
2019-01-28T13:33:02.846Z,1.57
2019-01-28T13:35:31.857Z,3.07
2019-01-28T13:38:00.804Z,2.17
2019-01-28T13:40:29.808Z,2.17
2019-01-28T13:42:58.682Z,4.37
2019-01-28T13:45:27.821Z,1.10
2019-01-28T13:47:57.896Z,3.10
2019-01-28T13:50:27.009Z,3.20
2019-01-28T13:52:55.943Z,1.27
2019-01-28T13:55:25.052Z,3.40
2019-01-28T13:57:53.953Z,1.70
2019-01-28T14:00:25.356Z,1.70
2019-01-28T14:02:54.645Z,1.87
2019-01-28T14:05:23.935Z,4.03
2019-01-28T14:07:53.368Z,5.60
2019-01-28T14:10:22.331Z,2.23
2019-01-28T14:12:51.533Z,1.60
2019-01-28T14:15:25.977Z,12.03
2019-01-28T14:17:55.015Z,4.47
2019-01-28T14:20:24.454Z,4.50
2019-01-28T14:22:53.503Z,2.63
2019-01-28T14:25:22.605Z,2.07
2019-01-28T14:27:51.759Z,1.53
2019-01-28T14:30:29.825Z,1.40
2019-01-28T14:32:59.198Z,4.17
2019-01-28T14:35:28.305Z,4.63
2019-01-28T14:37:57.251Z,4.00
2019-01-28T14:40:26.529Z,4.60
2019-01-28T14:42:55.573Z,6.17
2019-01-28T14:45:24.695Z,1.80
2019-01-28T14:47:53.551Z,1.50
2019-01-28T14:50:25.173Z,4.90
2019-01-28T14:52:54.205Z,4.07
2019-01-28T14:55:23.263Z,2.90
2019-01-28T14:57:52.361Z,2.03
2019-01-28T15:00:23.977Z,5.70
2019-01-28T15:02:53.025Z,3.40
2019-01-28T15:05:22.017Z,1.30
2019-01-28T15:07:51.113Z,5.90
2019-01-28T15:10:20.306Z,2.40
2019-01-28T15:12:49.576Z,1.93
2019-01-28T15:15:20.809Z,6.13
2019-01-28T15:17:49.897Z,2.73
2019-01-28T15:20:18.979Z,1.40
2019-01-28T15:22:47.841Z,2.60
2019-01-28T15:25:16.903Z,1.87
2019-01-28T15:27:45.859Z,0.87
2019-01-28T15:30:18.400Z,1.13
2019-01-28T15:32:47.511Z,0.70
2019-01-28T15:35:16.782Z,2.00
2019-01-28T15:37:45.726Z,0.80
2019-01-28T15:40:18.075Z,2.83
2019-01-28T15:42:47.121Z,1.40
2019-01-28T15:45:19.851Z,1.47
2019-01-28T15:47:48.866Z,1.03
2019-01-28T15:50:17.866Z,1.97
2019-01-28T15:52:46.820Z,1.80
2019-01-28T15:55:19.487Z,1.40
2019-01-28T15:57:48.468Z,1.33
2019-01-28T16:00:20.229Z,2.13
2019-01-28T16:02:49.274Z,1.57
2019-01-28T16:05:18.098Z,1.30
2019-01-28T16:07:47.181Z,1.57
2019-01-28T16:10:16.872Z,3.13
2019-01-28T16:12:45.832Z,1.60
2019-01-28T16:15:20.856Z,1.50
2019-01-28T16:17:49.786Z,3.10
2019-01-28T16:20:18.881Z,1.47
2019-01-28T16:22:48.108Z,1.73
2019-01-28T16:25:17.157Z,2.47
2019-01-28T16:27:46.040Z,3.03
2019-01-28T16:30:17.806Z,1.90
2019-01-28T16:32:46.895Z,2.07
2019-01-28T16:35:16.727Z,2.27
2019-01-28T16:37:45.940Z,2.60
2019-01-28T16:40:17.191Z,2.10
2019-01-28T16:42:46.308Z,2.33
2019-01-28T16:45:16.096Z,3.43
2019-01-28T16:47:45.020Z,3.13
2019-01-28T16:50:17.572Z,3.77
2019-01-28T16:52:46.546Z,5.40
2019-01-28T16:55:15.635Z,4.60
2019-01-28T16:57:44.731Z,6.40
2019-01-28T17:00:25.498Z,4.93
2019-01-28T17:02:54.478Z,3.87
2019-01-28T17:05:24.042Z,5.33
2019-01-28T17:07:53.057Z,4.87
2019-01-28T17:10:22.151Z,5.70
2019-01-28T17:12:51.290Z,4.87
2019-01-28T17:15:20.368Z,4.63
2019-01-28T17:17:49.504Z,7.30
2019-01-28T17:20:26.283Z,6.10
2019-01-28T17:22:55.437Z,5.70
2019-01-28T17:25:27.720Z,4.47
2019-01-28T17:27:56.738Z,5.40
2019-01-28T17:30:28.726Z,4.80
2019-01-28T17:32:57.724Z,5.67
2019-01-28T17:35:26.715Z,6.77
2019-01-28T17:37:55.689Z,8.10
2019-01-28T17:40:24.864Z,5.00
2019-01-28T17:42:53.842Z,5.00
2019-01-28T17:45:23.180Z,4.90
2019-01-28T17:47:52.072Z,4.87
2019-01-28T17:50:24.721Z,5.97
2019-01-28T17:52:51.843Z,6.50
2019-01-28T17:55:20.896Z,16.30
2019-01-28T17:57:49.845Z,5.83
2019-01-28T18:00:54.846Z,5.40
2019-01-28T18:03:23.651Z,5.60
2019-01-28T18:05:52.590Z,5.73
2019-01-28T18:08:21.528Z,7.00
2019-01-28T18:10:50.647Z,6.80
2019-01-28T18:13:19.562Z,6.13
2019-01-28T18:15:48.582Z,6.70
2019-01-28T18:18:17.571Z,6.87
2019-01-28T18:20:51.542Z,7.33
2019-01-28T18:23:42.427Z,7.53
2019-01-28T18:26:11.309Z,6.70
2019-01-28T18:28:40.244Z,8.50
2019-01-28T18:31:09.082Z,5.93
2019-01-28T18:33:37.921Z,5.80
2019-01-28T18:36:06.901Z,6.40
2019-01-28T18:38:35.853Z,6.97
2019-01-28T18:41:05.519Z,7.90
2019-01-28T18:43:34.487Z,8.77
2019-01-28T18:46:03.489Z,7.10
2019-01-28T18:48:32.502Z,6.33
2019-01-28T18:51:01.394Z,7.90
2019-01-28T18:53:30.381Z,6.20
2019-01-28T18:55:59.221Z,7.70
2019-01-28T18:58:28.163Z,7.03
2019-01-28T19:00:57.177Z,6.97
2019-01-28T19:03:26.078Z,6.27
2019-01-28T19:06:02.160Z,8.53
2019-01-28T19:08:48.863Z,7.07
2019-01-28T19:11:30.915Z,9.30
2019-01-28T19:14:09.665Z,7.87
2019-01-28T19:16:47.917Z,8.40
2019-01-28T19:19:50.892Z,8.60
2019-01-28T19:22:24.207Z,9.90
2019-01-28T19:24:53.223Z,9.57
2019-01-28T19:27:22.289Z,10.63
2019-01-28T19:29:51.317Z,10.40
2019-01-28T19:32:20.157Z,11.30
2019-01-28T19:34:49.068Z,11.43
2019-01-28T19:37:17.918Z,8.90
2019-01-28T19:39:46.779Z,9.50
2019-01-28T19:42:15.669Z,12.13
2019-01-28T19:44:44.601Z,11.10
2019-01-28T19:47:13.692Z,13.13
2019-01-28T19:49:42.743Z,12.40
2019-01-28T19:52:11.645Z,15.33
2019-01-28T19:54:40.584Z,11.77
2019-01-28T19:57:09.658Z,11.37
2019-01-28T19:59:38.559Z,15.50
2019-01-28T20:02:07.477Z,13.47
2019-01-28T20:04:36.345Z,13.97
2019-01-28T20:07:05.541Z,13.50
2019-01-28T20:09:34.437Z,15.83
2019-01-28T20:12:03.390Z,13.43
2019-01-28T20:14:33.463Z,13.40
2019-01-28T20:17:02.544Z,18.10
2019-01-28T20:19:31.566Z,18.20
2019-01-28T20:22:00.573Z,17.23
2019-01-28T20:24:29.634Z,17.13
2019-01-28T20:26:58.646Z,16.27
2019-01-28T20:29:27.808Z,18.03
2019-01-28T20:31:58.040Z,17.70
2019-01-28T20:34:27.238Z,18.17
2019-01-28T20:36:56.109Z,20.33
2019-01-28T20:39:25.120Z,20.23
2019-01-28T20:41:54.084Z,17.83
2019-01-28T20:44:23.452Z,18.33
2019-01-28T20:46:52.327Z,19.20
2019-01-28T20:49:22.082Z,18.50
2019-01-28T20:51:51.097Z,17.67
2019-01-28T20:54:20.070Z,18.30
2019-01-28T20:56:48.958Z,17.07
2019-01-28T20:59:17.920Z,17.03
2019-01-28T21:01:46.960Z,17.53
2019-01-28T21:04:15.935Z,18.60
2019-01-28T21:06:44.903Z,20.17
2019-01-28T21:09:13.998Z,20.50
2019-01-28T21:11:43.107Z,19.70
2019-01-28T21:14:12.261Z,18.10
2019-01-28T21:16:41.302Z,20.33
2019-01-28T21:19:10.268Z,23.33
2019-01-28T21:21:41.909Z,22.73
2019-01-28T21:24:09.778Z,25.67
2019-01-28T21:26:38.652Z,22.70
2019-01-28T21:29:07.630Z,21.90
2019-01-28T21:31:36.482Z,24.03
2019-01-28T21:34:05.675Z,24.07
2019-01-28T21:36:42.934Z,22.57
2019-01-28T21:39:14.178Z,26.80
2019-01-28T21:41:43.019Z,26.37
2019-01-28T21:44:11.933Z,24.63
2019-01-28T21:46:40.936Z,30.73
2019-01-28T21:49:09.936Z,25.20
2019-01-28T21:51:38.850Z,25.13
2019-01-28T21:54:07.827Z,29.80
2019-01-28T21:56:36.718Z,25.87
2019-01-28T21:59:05.809Z,24.00
2019-01-28T22:01:34.791Z,27.03
2019-01-28T22:04:03.619Z,29.43
2019-01-28T22:06:32.506Z,25.17
2019-01-28T22:09:01.523Z,22.03
2019-01-28T22:11:30.437Z,27.67
2019-01-28T22:13:59.404Z,27.30
2019-01-28T22:16:28.350Z,26.73
2019-01-28T22:19:09.207Z,24.37
2019-01-28T22:22:03.585Z,26.77
2019-01-28T22:24:32.427Z,26.40
2019-01-28T22:27:01.527Z,26.10
2019-01-28T22:29:30.348Z,27.23
2019-01-28T22:32:03.579Z,29.10
2019-01-28T22:34:32.747Z,27.97
2019-01-28T22:37:02.067Z,30.40
2019-01-28T22:39:30.921Z,29.90
2019-01-28T22:41:59.834Z,26.27
2019-01-28T22:44:28.759Z,25.87
2019-01-28T22:46:57.773Z,28.13
2019-01-28T22:49:26.739Z,28.17
2019-01-28T22:51:55.987Z,25.93
2019-01-28T22:54:24.985Z,28.90
2019-01-28T22:56:53.923Z,28.90
2019-01-28T22:59:22.790Z,29.97
2019-01-28T23:01:51.838Z,30.80
2019-01-28T23:04:20.767Z,25.00
2019-01-28T23:06:49.579Z,25.43
2019-01-28T23:09:18.461Z,29.17
2019-01-28T23:11:47.337Z,26.80
2019-01-28T23:14:16.244Z,28.30
2019-01-28T23:16:45.153Z,27.57
2019-01-28T23:19:14.013Z,29.20
2019-01-28T23:21:42.893Z,27.57
2019-01-28T23:24:11.730Z,28.77
2019-01-28T23:26:40.583Z,29.17
2019-01-28T23:29:09.451Z,28.27
2019-01-28T23:31:38.447Z,25.70
2019-01-28T23:34:07.442Z,29.00
2019-01-28T23:36:36.322Z,27.80
2019-01-28T23:39:07.937Z,25.50
2019-01-28T23:41:36.775Z,24.87
2019-01-28T23:44:05.697Z,28.47
2019-01-28T23:46:34.529Z,25.53
2019-01-28T23:49:03.408Z,25.63
2019-01-28T23:51:32.421Z,25.33
2019-01-28T23:54:01.348Z,25.70
2019-01-28T23:56:30.273Z,28.53
2019-01-28T23:58:59.267Z,29.03
